You are not logged in, Click here to log in
ICAO: VTSP Country: 泰國普吉島北部
Latitude: 8.1111 Longitude: 98.3065
Total Arrivals: 6 Total Departures: 3
Latest Arrival: L7S66 (VTBD-VTSP)CHU. CHUHAO Latest Departure: FS69 (VTSP-VDPP)CHU. CHUHAO
Scenery:
METAR : VTSP 210700Z 28010KT 240V340 9000 4500S -RA FEW018TCU BKN020 31/23 Q1010 NOSIG

普吉國際機場 HKT